Terminal Aerodrome Forecast
Issued by NWS

Home | Current Version | Previous Version | Text Only | Print | Product List | Glossary On
Versions: 1 2 3 4 5 6 7 8 9 10 11 12 13 14 15 16 17
998
FTUS42 KFFC 050158 AAA
TAFFTY
TAF AMD
KFTY 050158Z 0502/0524 08008KT 5SM -RADZ BR OVC006
     FM050400 05005KT 2SM -RADZ BR OVC003
     FM051500 04005KT 3SM -RA BR OVC005
     FM051800 06005KT 5SM -RA BR OVC008
     FM052200 08006KT 4SM -RA BR OVC006=

USA.gov is the U.S. government's official web portal to all federal, state and local government web resources and services.